TAF and METAR

Decoding for American and Canadian METARs and TAFs is not fully implemented.
No METAR available for Hall Beach Airport

TAF for Hall Beach Airport

TAF CYUX 181238Z 1813/1901 35008KT P6SM IC BKN015 TEMPO 1813/1901 P6SM NSW SCT015 RMK FCST BASED ON AUTO OBS. NXT FCST BY 181900Z
Report created 18. apr 14:38

between 18. apr 15:00 - 19. apr 03:00

wind 8 knots from N (350°)
Hall Beach Airport in Canada at 8m

Latest 5 airports